Itainopolis, Brazil
Current Conditions -  °F | °C
As of 11:00 AM on Sunday 21 Dec 2014 (Local Time) from SBPL Reporting Station
Scattered Clouds Scattered Clouds  
Wind Chill: 86°   Ceiling: Unl
Heat Index: 93°   Visibility: 6mi
Dew Point: 73°   Wind: 7mph
Humidity: 66%   Direction: 100°E
Pressure: 30"   Gusts: NA
Location:  7.45°S, 41.47°W
Report Text: SBPL 211400Z 10006KT 9999 SCT025 30/23 Q1016
Loading
Personal Weather Stations






























Interactive Weather Map New forecast layout! Learn more

10-Day Weather Forecast

Advertisements
Track Severe Weather on mobile